Time;durP1;ratioP1;P1;durP2;ratioP2;P2;SDS_P1;SDS_P2;PMS_P1;PMS_P2;Temp;Humidity;BMP_temperature;BMP_pressure;BME280_temperature;BME280_humidity;BME280_pressure;Samples;Min_cycle;Max_cycle;Signal;HPM_P1;HPM_P2
2021/01/10 00:02:19;;;;;;;;;52.00;48.00;;;;;0.79;72.51;101773.94;4421558;32;9032;-77
2021/01/10 00:05:28;;;;;;;;;49.00;45.33;;;;;0.63;72.25;101776.56;4422203;32;8907;-78
2021/01/10 00:08:23;;;;;;;;;36.67;36.67;;;;;0.56;72.37;101776.69;4423447;32;8898;-77
2021/01/10 00:11:05;;;;;;;;;44.67;39.33;;;;;0.63;72.61;101777.38;4425763;32;8955;-77
2021/01/10 00:13:32;;;;;;;;;26.33;20.33;;;;;0.66;72.40;101776.06;4422607;32;8850;-77
2021/01/10 00:16:27;;;;;;;;;50.00;43.33;;;;;0.59;72.39;101776.19;4424512;32;8875;-77
2021/01/10 00:19:23;;;;;;;;;41.00;37.67;;;;;0.59;72.77;101770.75;4427191;32;8921;-77
2021/01/10 00:21:58;;;;;;;;;59.33;49.67;;;;;0.60;72.79;101774.28;4424699;32;8949;-77
2021/01/10 00:24:25;;;;;;;;;47.67;46.33;;;;;0.84;72.21;101773.19;4433872;32;8859;-77
2021/01/10 00:27:08;;;;;;;;;52.33;47.00;;;;;0.69;71.91;101776.44;4437446;32;8924;-77
2021/01/10 00:30:09;;;;;;;;;58.67;47.33;;;;;0.50;72.36;101772.19;4428429;32;8886;-77
2021/01/10 00:33:05;;;;;;;;;54.67;48.00;;;;;0.60;72.33;101775.13;4421776;32;8940;-77
2021/01/10 00:35:32;;;;;;;;;50.33;48.00;;;;;0.73;72.67;101774.06;4429530;32;8907;-77
2021/01/10 00:38:27;;;;;;;;;66.33;51.67;;;;;0.55;72.76;101770.41;4437278;32;9016;-79
2021/01/10 00:41:23;;;;;;;;;53.00;48.33;;;;;0.64;72.20;101764.59;4422997;32;8930;-78
2021/01/10 00:44:19;;;;;;;;;52.67;48.33;;;;;0.67;72.20;101764.94;4421678;32;9020;-78
2021/01/10 00:47:18;;;;;;;;;69.33;51.67;;;;;0.58;72.38;101766.38;4421213;32;8883;-78
2021/01/10 00:50:14;;;;;;;;;54.67;50.33;;;;;0.49;72.29;101765.09;4421320;32;8925;-78
2021/01/10 00:52:41;;;;;;;;;67.00;52.67;;;;;0.46;72.39;101765.53;4436652;32;8890;-78
2021/01/10 00:55:36;;;;;;;;;46.00;45.00;;;;;0.37;72.65;101767.78;4421001;32;8884;-78
2021/01/10 00:58:32;;;;;;;;;59.00;46.00;;;;;0.50;72.72;101772.19;4419544;32;8937;-78
2021/01/10 01:01:27;;;;;;;;;52.67;45.33;;;;;0.39;72.85;101778.47;4419444;32;8939;-78
2021/01/10 01:04:09;;;;;;;;;59.33;50.67;;;;;0.37;73.06;101769.69;4420193;32;8887;-78
2021/01/10 01:07:05;;;;;;;;;59.67;52.67;;;;;0.45;72.71;101763.88;4419088;32;8911;-78
2021/01/10 01:10:00;;;;;;;;;51.00;47.33;;;;;0.52;72.93;101761.88;4420699;32;8881;-78
2021/01/10 01:12:56;;;;;;;;;43.67;38.00;;;;;0.61;72.49;101767.78;4418626;32;8916;-78
2021/01/10 01:15:37;;;;;;;;;54.67;40.67;;;;;0.37;73.06;101772.41;4405028;32;8933;-78
2021/01/10 01:18:34;;;;;;;;;53.67;48.33;;;;;0.37;72.85;101766.97;4417081;32;8885;-78
2021/01/10 01:21:30;;;;;;;;;47.00;43.33;;;;;0.40;72.48;101763.78;4419848;32;8897;-78
2021/01/10 01:24:26;;;;;;;;;46.00;45.00;;;;;0.18;73.48;101764.38;4408259;32;9022;-78
2021/01/10 01:27:11;;;;;;;;;53.67;47.33;;;;;0.30;73.62;101756.19;4419200;32;8900;-78
2021/01/10 01:30:07;;;;;;;;;56.67;49.67;;;;;0.24;73.54;101757.16;4420519;32;8958;-78
2021/01/10 01:32:35;;;;;;;;;58.00;48.00;;;;;0.22;73.46;101757.38;4406096;32;8901;-78
2021/01/10 01:35:30;;;;;;;;;48.00;45.00;;;;;0.38;73.01;101765.91;4405083;32;8906;-78
2021/01/10 01:38:12;;;;;;;;;47.33;45.33;;;;;0.41;73.06;101766.28;4404681;32;9567;-78
2021/01/10 01:41:08;;;;;;;;;43.67;42.33;;;;;0.35;72.86;101771.81;4416660;32;8936;-78
2021/01/10 01:43:40;;;;;;;;;46.67;42.33;;;;;0.55;72.03;101761.41;4422909;32;8941;-78
2021/01/10 01:46:37;;;;;;;;;47.33;42.33;;;;;0.45;72.53;101763.88;4419976;32;8934;-78
2021/01/10 01:49:33;;;;;;;;;48.00;44.33;;;;;0.41;71.92;101762.72;4403681;32;8935;-78
2021/01/10 01:52:08;;;;;;;;;45.67;39.67;;;;;0.38;72.80;101753.13;4404475;32;8937;-78
2021/01/10 01:55:04;;;;;;;;;49.33;41.67;;;;;0.48;72.48;101758.81;4409019;32;8906;-78
2021/01/10 01:58:00;;;;;;;;;55.67;49.00;;;;;0.49;72.27;101754.19;4427375;32;8926;-77
2021/01/10 02:00:55;;;;;;;;;39.33;39.33;;;;;0.39;72.42;101760.25;4420908;32;9040;-77
2021/01/10 02:03:57;;;;;;;;;60.33;48.33;;;;;0.50;72.27;101753.13;4420505;32;8926;-78
2021/01/10 02:06:59;;;;;;;;;46.33;42.67;;;;;0.59;71.97;101762.56;4419439;32;8894;-78
2021/01/10 02:09:43;;;;;;;;;47.00;44.67;;;;;0.61;72.27;101759.63;4422908;32;8877;-78
2021/01/10 02:12:51;;;;;;;;;52.33;48.33;;;;;0.47;72.09;101762.59;4420395;32;9002;-78
2021/01/10 02:15:46;;;;;;;;;52.67;46.67;;;;;0.47;71.58;101753.62;4425684;32;8886;-79
2021/01/10 02:18:43;;;;;;;;;42.33;42.33;;;;;0.34;72.24;101757.41;4427225;32;8926;-78
2021/01/10 02:21:35;;;;;;;;;43.67;42.67;;;;;0.28;72.72;101761.88;4422629;32;8881;-78
2021/01/10 02:24:34;;;;;;;;;49.33;46.00;;;;;0.50;72.81;101758.56;4421345;32;8883;-78
2021/01/10 02:27:16;;;;;;;;;39.33;36.33;;;;;0.47;72.56;101759.06;4425911;32;8890;-78
2021/01/10 02:29:44;;;;;;;;;51.67;47.33;;;;;0.48;72.40;101760.72;4425619;32;8919;-78
2021/01/10 02:32:44;;;;;;;;;46.67;45.00;;;;;0.58;72.43;101758.19;4426875;32;8946;-78
2021/01/10 02:35:43;;;;;;;;;49.67;48.00;;;;;0.52;72.55;101762.69;4426519;32;8955;-77
2021/01/10 02:38:44;;;;;;;;;48.00;45.33;;;;;0.73;72.13;101757.72;4425980;32;8981;-78
2021/01/10 02:41:51;;;;;;;;;52.00;48.33;;;;;0.67;72.17;101764.94;4425174;32;8997;-78
2021/01/10 02:44:57;;;;;;;;;56.67;45.00;;;;;0.52;72.83;101759.16;4425866;32;8922;-78
2021/01/10 02:47:53;;;;;;;;;46.67;45.00;;;;;0.64;72.47;101762.69;4427027;32;8986;-78
2021/01/10 02:50:48;;;;;;;;;48.33;45.33;;;;;0.66;72.62;101766.00;4424996;32;8955;-78
2021/01/10 02:53:44;;;;;;;;;49.00;45.00;;;;;0.81;72.37;101770.97;4426314;32;8910;-78
2021/01/10 02:56:47;;;;;;;;;46.00;42.33;;;;;0.74;72.35;101773.81;4426571;32;8896;-78
2021/01/10 02:59:46;;;;;;;;;52.00;45.00;;;;;0.89;71.92;101783.38;4425408;32;8906;-78
2021/01/10 03:02:43;;;;;;;;;46.00;42.67;;;;;0.69;72.29;101786.47;4426419;32;8908;-78
2021/01/10 03:05:39;;;;;;;;;42.67;42.33;;;;;0.77;72.56;101781.53;4424935;32;9007;-78
2021/01/10 03:08:37;;;;;;;;;48.33;45.33;;;;;0.76;72.70;101787.19;4424753;32;8960;-78
2021/01/10 03:11:34;;;;;;;;;53.33;49.00;;;;;0.68;72.71;101782.94;4425742;32;9012;-78
2021/01/10 03:14:29;;;;;;;;;43.33;41.33;;;;;0.62;73.19;101780.34;4424054;32;8882;-79
2021/01/10 03:17:34;;;;;;;;;31.33;30.33;;;;;0.67;73.23;101784.00;4424346;32;8987;-78
2021/01/10 03:20:05;;;;;;;;;39.00;36.00;;;;;0.83;72.93;101788.72;4426501;32;9034;-78
2021/01/10 03:23:00;;;;;;;;;49.00;42.33;;;;;0.74;72.88;101792.87;4427003;32;8895;-78
2021/01/10 03:25:56;;;;;;;;;52.33;47.33;;;;;0.83;72.92;101798.78;4426278;32;9552;-77
2021/01/10 03:28:51;;;;;;;;;40.67;40.67;;;;;0.87;72.80;101799.16;4426290;32;8886;-78
2021/01/10 03:31:47;;;;;;;;;48.33;45.00;;;;;0.97;72.41;101802.06;4425627;32;8891;-77
2021/01/10 03:34:43;;;;;;;;;43.33;43.33;;;;;0.91;72.50;101803.84;4427576;32;8926;-77
2021/01/10 03:37:39;;;;;;;;;45.67;39.33;;;;;0.90;72.62;101804.94;4424230;32;8906;-78
2021/01/10 03:40:35;;;;;;;;;51.00;45.67;;;;;0.95;72.56;101813.22;4424172;32;8979;-78
2021/01/10 03:43:30;;;;;;;;;51.67;48.00;;;;;0.95;72.28;101815.12;4423293;32;8880;-77
2021/01/10 03:46:00;;;;;;;;;51.00;48.00;;;;;0.94;72.51;101814.28;4425890;32;8878;-78
2021/01/10 03:48:56;;;;;;;;;48.33;44.00;;;;;0.84;72.54;101808.59;4425663;32;8929;-78
2021/01/10 03:51:51;;;;;;;;;45.67;42.33;;;;;0.90;72.83;101812.28;4426961;32;8887;-77
2021/01/10 03:54:47;;;;;;;;;45.00;45.00;;;;;0.83;72.65;101805.06;4425717;32;8890;-78
2021/01/10 03:57:42;;;;;;;;;48.33;45.00;;;;;0.73;72.67;101806.72;4424328;32;8960;-78
2021/01/10 04:00:38;;;;;;;;;52.67;46.00;;;;;0.73;72.48;101818.44;4429171;32;9598;-78
2021/01/10 04:03:33;;;;;;;;;47.00;42.33;;;;;0.57;73.05;101821.88;4423984;32;8952;-78
2021/01/10 04:06:29;;;;;;;;;51.67;47.33;;;;;0.69;72.94;101825.44;4425050;32;8898;-77
2021/01/10 04:09:25;;;;;;;;;64.67;45.00;;;;;0.79;72.65;101811.22;4427884;32;8891;-77
2021/01/10 04:12:20;;;;;;;;;51.67;47.33;;;;;0.65;72.58;101818.81;4425580;32;8884;-77
2021/01/10 04:14:48;;;;;;;;;39.67;36.00;;;;;0.62;72.80;101810.31;4428097;32;8969;-78
2021/01/10 04:17:43;;;;;;;;;45.00;41.00;;;;;0.59;73.01;101813.47;4424711;32;8998;-77
2021/01/10 04:20:39;;;;;;;;;44.00;43.67;;;;;0.46;73.60;101815.38;4424483;32;8930;-78
2021/01/10 04:23:06;;;;;;;;;61.67;52.00;;;;;0.30;74.00;101823.41;4434169;32;8891;-77
2021/01/10 04:26:02;;;;;;;;;56.33;48.67;;;;;0.53;73.49;101820.69;4425325;32;8997;-77
2021/01/10 04:28:57;;;;;;;;;50.67;45.33;;;;;0.52;73.22;101829.94;4427261;32;9699;-77
2021/01/10 04:31:54;;;;;;;;;53.33;48.67;;;;;0.46;73.44;101826.28;4425758;32;8936;-77
2021/01/10 04:34:50;;;;;;;;;42.67;39.33;;;;;0.68;73.08;101829.22;4427584;32;9641;-78
2021/01/10 04:37:45;;;;;;;;;44.33;44.33;;;;;0.94;72.46;101824.34;4427461;32;8895;-77
2021/01/10 04:40:29;;;;;;;;;59.33;51.67;;;;;1.00;72.35;101835.12;4433058;32;8865;-77
2021/01/10 04:42:57;;;;;;;;;55.00;48.00;;;;;0.95;72.17;101839.63;4426102;32;8895;-77
2021/01/10 04:45:53;;;;;;;;;63.67;53.67;;;;;1.05;71.99;101846.13;4427408;32;9004;-77
2021/01/10 04:48:50;;;;;;;;;31.67;31.67;;;;;0.99;72.20;101838.06;4425661;32;8934;-78
2021/01/10 04:51:46;;;;;;;;;57.67;51.33;;;;;0.97;71.95;101848.38;4426453;32;8929;-77
2021/01/10 04:54:32;;;;;;;;;58.67;49.00;;;;;1.02;72.63;101840.34;4428227;32;9744;-77
2021/01/10 04:57:35;;;;;;;;;55.00;48.67;;;;;1.13;72.04;101844.91;4426048;32;8991;-77
2021/01/10 05:00:06;;;;;;;;;45.67;41.33;;;;;1.01;72.13;101836.78;4430317;32;8871;-77
2021/01/10 05:03:05;;;;;;;;;46.33;42.33;;;;;0.98;72.13;101834.53;4436008;32;8995;-77
2021/01/10 05:06:00;;;;;;;;;58.00;48.00;;;;;0.81;72.21;101845.31;4435130;32;8957;-77
2021/01/10 05:08:57;;;;;;;;;52.00;48.33;;;;;0.67;72.36;101838.44;4435880;32;8977;-77
2021/01/10 05:11:52;;;;;;;;;49.00;48.00;;;;;0.56;72.71;101847.47;4434845;32;8892;-76
2021/01/10 05:14:28;;;;;;;;;60.33;52.00;;;;;0.60;72.32;101850.53;4430358;32;8969;-76
2021/01/10 05:17:24;;;;;;;;;54.00;45.00;;;;;0.46;72.70;101858.09;4435164;32;9065;-75
2021/01/10 05:20:19;;;;;;;;;44.00;41.67;;;;;0.48;72.60;101862.25;4435085;32;9043;-75
2021/01/10 05:23:15;;;;;;;;;39.67;39.33;;;;;0.49;72.56;101861.19;4435630;32;8884;-75
2021/01/10 05:26:04;;;;;;;;;44.33;42.67;;;;;0.50;72.79;101859.28;4424109;32;8913;-76
2021/01/10 05:29:08;;;;;;;;;51.33;48.00;;;;;0.53;72.45;101864.25;4419398;32;8995;-76
2021/01/10 05:32:04;;;;;;;;;54.67;47.33;;;;;0.66;72.61;101869.47;4419873;32;8964;-76
2021/01/10 05:35:00;;;;;;;;;50.33;36.00;;;;;0.63;72.19;101869.97;4419904;32;8906;-76
2021/01/10 05:37:58;;;;;;;;;56.33;46.67;;;;;0.65;72.44;101867.81;4420731;32;8899;-76
2021/01/10 05:40:39;;;;;;;;;61.67;51.33;;;;;0.53;72.51;101864.25;4420939;32;8881;-77
2021/01/10 05:43:35;;;;;;;;;51.67;45.33;;;;;0.63;72.60;101867.25;4424915;32;9071;-76
2021/01/10 05:46:31;;;;;;;;;64.00;49.00;;;;;0.73;72.45;101869.38;4421002;32;8898;-77
2021/01/10 05:49:21;;;;;;;;;56.33;48.00;;;;;0.73;72.75;101877.53;4421736;32;8877;-76
2021/01/10 05:52:17;;;;;;;;;43.67;39.00;;;;;0.86;72.45;101874.59;4421227;32;8949;-76
2021/01/10 05:55:13;;;;;;;;;57.67;45.00;;;;;0.77;72.53;101886.91;4430091;32;8939;-76
2021/01/10 05:58:13;;;;;;;;;40.67;40.67;;;;;0.68;72.79;101886.41;4433864;32;8970;-77
2021/01/10 06:01:11;;;;;;;;;54.67;46.00;;;;;0.75;72.99;101887.13;4434600;32;8993;-76
2021/01/10 06:04:20;;;;;;;;;55.33;50.67;;;;;1.00;72.68;101889.62;4435140;32;8942;-77
2021/01/10 06:06:47;;;;;;;;;45.33;42.67;;;;;0.96;72.83;101888.44;4435321;32;8879;-78
2021/01/10 06:09:47;;;;;;;;;40.67;40.67;;;;;0.92;72.76;101889.97;4425018;32;8975;-75
2021/01/10 06:12:21;;;;;;;;;52.00;48.33;;;;;0.84;73.10;101901.19;4419464;32;8905;-75
2021/01/10 06:15:18;;;;;;;;;54.33;46.67;;;;;0.89;73.10;101900.50;4419351;32;9683;-75
2021/01/10 06:18:16;;;;;;;;;46.67;45.00;;;;;0.91;73.33;101907.38;4419107;32;8907;-77
2021/01/10 06:20:43;;;;;;;;;71.67;57.67;;;;;0.95;73.35;101905.00;4419576;32;8935;-77
2021/01/10 06:23:42;;;;;;;;;50.67;45.67;;;;;1.06;73.20;101910.44;4421681;32;9017;-76
2021/01/10 06:26:52;;;;;;;;;61.00;51.67;;;;;1.31;72.78;101910.19;4421254;32;8983;-76
2021/01/10 06:29:54;;;;;;;;;50.33;45.00;;;;;1.42;72.45;101903.06;4433167;32;8884;-76
2021/01/10 06:32:25;;;;;;;;;61.33;51.00;;;;;1.48;72.44;101904.00;4430409;32;8889;-76
2021/01/10 06:35:02;;;;;;;;;41.00;40.00;;;;;1.43;72.27;101912.06;4428534;32;8878;-77
2021/01/10 06:37:58;;;;;;;;;50.67;46.67;;;;;1.47;72.14;101903.19;4418443;32;9579;-76
2021/01/10 06:41:36;;;;;;;;;59.67;52.00;;;;;1.55;72.04;101899.25;4419962;32;8882;-76
2021/01/10 06:44:37;;;;;;;;;59.00;50.33;;;;;1.60;72.05;101905.63;4414455;32;8906;-76
2021/01/10 06:47:33;;;;;;;;;55.67;45.33;;;;;1.69;71.98;101903.38;4418324;32;8971;-76
2021/01/10 06:50:00;;;;;;;;;52.33;44.33;;;;;1.69;72.27;101911.53;4430086;32;8879;-77
2021/01/10 06:53:05;;;;;;;;;65.00;54.67;;;;;1.61;72.65;101903.72;4434749;32;8908;-76
2021/01/10 06:55:47;;;;;;;;;63.33;51.33;;;;;1.67;72.80;101909.03;3970850;32;15137314;-76
2021/01/10 06:59:09;;;;;;;;;61.67;51.33;;;;;1.83;72.19;101901.97;4433779;32;8946;-76
2021/01/10 07:02:04;;;;;;;;;55.67;48.33;;;;;1.97;71.67;101899.78;4434088;32;8896;-76
2021/01/10 07:05:01;;;;;;;;;61.00;48.33;;;;;2.08;71.25;101898.09;4435285;32;8899;-76
2021/01/10 07:07:56;;;;;;;;;41.67;41.67;;;;;2.16;71.30;101900.44;4434235;32;8887;-76
2021/01/10 07:10:25;;;;;;;;;44.67;44.00;;;;;2.10;69.38;101902.22;4435567;32;8898;-76
2021/01/10 07:13:24;;;;;;;;;46.33;44.00;;;;;2.23;69.00;101903.84;4435269;32;8888;-76
2021/01/10 07:16:18;;;;;;;;;51.67;40.67;;;;;2.36;69.06;101911.69;4434965;32;8890;-76
2021/01/10 07:19:15;;;;;;;;;47.33;44.67;;;;;2.42;69.67;101907.16;4434813;32;8919;-76
2021/01/10 07:22:28;;;;;;;;;56.00;50.00;;;;;2.51;69.59;101900.22;4437085;32;8899;-76
2021/01/10 07:25:35;;;;;;;;;57.67;45.33;;;;;2.51;70.48;101911.97;4435486;32;8916;-76
2021/01/10 07:28:37;;;;;;;;;56.00;51.00;;;;;2.57;70.50;101912.06;4433581;32;8871;-74
2021/01/10 07:31:32;;;;;;;;;49.00;45.33;;;;;2.73;69.71;101912.06;4433440;32;8896;-76
2021/01/10 07:34:30;;;;;;;;;44.67;42.33;;;;;2.75;68.97;101918.09;4433121;32;8930;-74
2021/01/10 07:37:05;;;;;;;;;62.67;51.33;;;;;2.89;69.16;101915.84;4436230;32;8907;-74
2021/01/10 07:40:05;;;;;;;;;50.67;46.00;;;;;2.94;68.88;101918.69;4434683;32;8950;-75
2021/01/10 07:42:40;;;;;;;;;58.33;51.00;;;;;2.89;68.79;101925.97;4434033;32;8951;-75
2021/01/10 07:45:38;;;;;;;;;63.00;54.00;;;;;2.92;69.24;101926.31;4432042;32;9618;-74
2021/01/10 07:48:35;;;;;;;;;67.00;55.67;;;;;2.86;69.04;101931.94;4433102;32;8896;-75
2021/01/10 07:51:15;;;;;;;;;55.00;46.00;;;;;3.04;68.95;101939.88;4436560;32;8898;-77
2021/01/10 07:54:11;;;;;;;;;63.00;51.00;;;;;3.25;68.44;101944.56;4437260;32;8950;-75
2021/01/10 07:56:39;;;;;;;;;55.33;50.00;;;;;3.38;68.04;101942.56;4437218;32;8871;-75
2021/01/10 07:59:21;;;;;;;;;48.33;43.00;;;;;3.33;68.28;101946.88;4438263;32;8887;-75
2021/01/10 08:02:16;;;;;;;;;57.00;49.00;;;;;3.37;68.15;101949.09;4438121;32;8911;-75
2021/01/10 08:05:14;;;;;;;;;65.00;55.33;;;;;3.64;67.40;101944.53;4434813;32;8904;-75
2021/01/10 08:08:12;;;;;;;;;64.33;51.00;;;;;3.92;66.99;101959.13;4436138;32;8900;-75
2021/01/10 08:11:09;;;;;;;;;62.33;53.00;;;;;3.98;66.56;101963.56;4436815;32;9012;-75
2021/01/10 08:14:11;;;;;;;;;63.00;49.00;;;;;4.02;65.62;101960.06;4436420;32;8908;-75
2021/01/10 08:17:17;;;;;;;;;55.00;40.33;;;;;3.97;65.80;101951.78;4436593;32;8908;-75
2021/01/10 08:20:03;;;;;;;;;54.00;47.33;;;;;3.83;65.92;101953.25;4436499;32;8982;-75
2021/01/10 08:22:30;;;;;;;;;59.33;50.33;;;;;3.88;65.68;101956.06;4438347;32;8887;-75
2021/01/10 08:25:02;;;;;;;;;59.00;50.33;;;;;4.00;65.95;101956.75;4437281;32;8925;-75
2021/01/10 08:27:58;;;;;;;;;62.67;52.67;;;;;3.89;65.65;101964.00;4432779;32;8924;-75
2021/01/10 08:31:01;;;;;;;;;64.67;48.33;;;;;4.08;65.78;101961.78;4421263;32;8950;-75
2021/01/10 08:33:29;;;;;;;;;66.67;55.67;;;;;4.14;64.53;101966.25;4422777;32;8926;-75
2021/01/10 08:36:24;;;;;;;;;62.67;50.00;;;;;4.17;65.74;101962.97;4420652;32;8968;-75
2021/01/10 08:39:20;;;;;;;;;64.00;50.33;;;;;4.31;65.23;101959.84;4421762;32;8890;-75
2021/01/10 08:42:16;;;;;;;;;61.67;52.33;;;;;4.19;64.77;101959.97;4435705;32;8900;-75
2021/01/10 08:45:20;;;;;;;;;70.00;57.00;;;;;4.18;64.69;101950.09;4438130;32;8883;-75
2021/01/10 08:48:17;;;;;;;;;69.00;55.33;;;;;4.05;64.81;101953.25;4419470;32;8959;-75
2021/01/10 08:51:44;;;;;;;;;63.00;54.00;;;;;3.90;64.81;101945.66;4421308;32;8941;-75
2021/01/10 08:54:49;;;;;;;;;64.33;50.67;;;;;4.11;64.52;101933.06;4420721;32;8902;-75
2021/01/10 08:57:46;;;;;;;;;64.00;51.00;;;;;4.13;64.46;101928.13;4419719;32;8929;-75
2021/01/10 09:00:41;;;;;;;;;50.33;45.33;;;;;4.13;64.29;101925.41;4420905;32;8968;-75
2021/01/10 09:03:37;;;;;;;;;55.00;48.33;;;;;4.39;65.04;101921.84;4433064;32;8895;-75
2021/01/10 09:07:00;;;;;;;;;46.00;44.25;;;;;4.34;65.39;101929.19;4435484;32;8888;-75
2021/01/10 09:09:43;;;;;;;;;66.00;56.33;;;;;4.81;64.63;101937.53;4437438;32;12414;-75
2021/01/10 09:12:22;;;;;;;;;60.00;51.33;;;;;4.82;63.20;101928.22;4435738;32;8891;-75
2021/01/10 09:15:24;;;;;;;;;56.75;48.25;;;;;4.96;62.55;101928.63;4435661;32;12344;-75
2021/01/10 09:18:20;;;;;;;;;71.33;57.33;;;;;4.95;63.25;101922.31;4435665;32;12409;-75
2021/01/10 09:21:06;;;;;;;;;60.00;49.00;;;;;4.88;63.24;101921.72;4435100;32;12331;-75
2021/01/10 09:24:02;;;;;;;;;46.25;41.50;;;;;5.23;62.82;101918.37;4434103;32;12308;-75
2021/01/10 09:26:34;;;;;;;;;66.00;51.00;;;;;5.56;60.16;101910.88;4435939;32;12385;-72
2021/01/10 09:29:30;;;;;;;;;51.50;45.75;;;;;5.35;60.08;101917.34;4435455;32;12335;-73
2021/01/10 09:32:26;;;;;;;;;54.00;48.25;;;;;5.46;62.21;101913.56;4434722;32;12347;-73
2021/01/10 09:35:08;;;;;;;;;57.00;46.75;;;;;6.09;60.99;101919.88;4436706;32;12345;-73
2021/01/10 09:37:36;;;;;;;;;55.50;47.25;;;;;6.09;59.65;101917.13;4434067;32;12483;-73
2021/01/10 09:40:18;;;;;;;;;50.25;45.00;;;;;5.87;58.84;101917.31;4436558;32;12317;-74
2021/01/10 09:43:32;;;;;;;;;54.75;47.25;;;;;5.69;59.42;101913.12;4436345;32;12340;-74
2021/01/10 09:46:00;;;;;;;;;51.50;46.50;;;;;6.04;59.56;101914.38;4437088;32;12324;-74
2021/01/10 09:49:00;;;;;;;;;59.50;51.50;;;;;6.34;59.59;101914.44;4435478;32;12529;-74
2021/01/10 09:51:58;;;;;;;;;43.00;41.25;;;;;6.40;58.51;101913.34;4434041;32;12306;-75
2021/01/10 09:54:57;;;;;;;;;50.75;45.00;;;;;6.53;58.31;101913.91;4434287;32;12331;-73
2021/01/10 09:57:56;;;;;;;;;43.75;42.00;;;;;6.80;57.87;101916.38;4435342;32;12388;-73
2021/01/10 10:00:23;;;;;;;;;46.75;42.50;;;;;6.73;57.81;101911.16;4435290;32;12324;-73
2021/01/10 10:03:19;;;;;;;;;61.25;50.50;;;;;6.73;57.91;101919.41;4436117;32;12344;-73
2021/01/10 10:06:04;;;;;;;;;60.75;50.75;;;;;7.17;57.61;101927.06;4435830;32;12308;-73
2021/01/10 10:08:32;;;;;;;;;59.00;48.50;;;;;7.42;56.58;101913.25;4435726;32;12315;-73
2021/01/10 10:11:28;;;;;;;;;52.25;45.50;;;;;7.27;57.62;101923.47;4432830;32;12412;-72
2021/01/10 10:14:23;;;;;;;;;53.75;46.50;;;;;7.88;55.51;101913.06;4433550;32;12378;-74
2021/01/10 10:17:21;;;;;;;;;41.50;39.75;;;;;8.19;55.55;101921.97;4435713;32;12404;-74
2021/01/10 10:20:16;;;;;;;;;47.25;43.00;;;;;7.64;56.34;101912.06;4432795;32;12331;-74
2021/01/10 10:22:44;;;;;;;;;42.00;39.25;;;;;8.25;52.35;101914.50;4435772;32;12371;-73
2021/01/10 10:25:41;;;;;;;;;55.50;46.00;;;;;8.13;54.11;101909.38;4435438;32;12486;-73
2021/01/10 10:28:36;;;;;;;;;50.25;43.50;;;;;8.14;54.89;101912.94;4434697;32;12333;-73
2021/01/10 10:31:32;;;;;;;;;52.25;46.50;;;;;8.53;52.83;101913.81;4433907;32;12395;-73
2021/01/10 10:34:22;;;;;;;;;42.00;39.25;;;;;8.88;54.68;101909.09;4435132;32;12360;-73
2021/01/10 10:36:57;;;;;;;;;45.50;40.50;;;;;8.61;53.08;101909.59;4435777;32;12342;-74
2021/01/10 10:39:53;;;;;;;;;37.00;37.00;;;;;8.18;53.64;101895.53;4435275;32;12350;-73
2021/01/10 10:42:49;;;;;;;;;38.25;37.50;;;;;7.93;53.51;101903.97;4435092;32;12386;-73
2021/01/10 10:45:45;;;;;;;;;47.00;42.75;;;;;8.23;54.15;101911.22;4432443;32;12333;-73
2021/01/10 10:48:41;;;;;;;;;38.75;37.00;;;;;8.32;53.83;101901.25;4434101;32;12388;-74
2021/01/10 10:51:36;;;;;;;;;55.00;46.50;;;;;8.72;51.49;101896.53;4433436;32;12360;-74
2021/01/10 10:54:32;;;;;;;;;45.75;41.50;;;;;8.98;52.46;101894.41;4433818;32;13044;-74
2021/01/10 10:57:27;;;;;;;;;42.75;40.50;;;;;8.60;51.55;101896.94;4434953;32;12410;-74
2021/01/10 11:00:24;;;;;;;;;41.00;38.25;;;;;8.30;52.54;101887.75;4434253;32;12958;-73
2021/01/10 11:03:19;;;;;;;;;42.50;39.75;;;;;8.22;53.20;101890.28;4434357;32;12391;-74
2021/01/10 11:06:15;;;;;;;;;49.75;44.00;;;;;8.85;51.32;101887.59;4434533;32;12464;-75
2021/01/10 11:08:45;;;;;;;;;46.50;40.25;;;;;9.04;52.69;101888.50;4418442;32;12461;-74
2021/01/10 11:11:46;;;;;;;;;48.75;43.75;;;;;9.01;52.17;101886.34;4418539;32;13051;-75
2021/01/10 11:14:16;;;;;;;;;45.25;41.75;;;;;8.82;53.00;101883.50;4420046;32;12362;-74
2021/01/10 11:16:50;;;;;;;;;43.00;39.75;;;;;8.68;52.32;101887.22;4418668;32;12395;-74
2021/01/10 11:19:48;;;;;;;;;44.50;40.25;;;;;8.78;50.21;101884.34;4418782;32;13071;-74
2021/01/10 11:22:15;;;;;;;;;50.50;45.25;;;;;8.90;51.72;101877.34;4419320;32;12635;-75
2021/01/10 11:25:11;;;;;;;;;47.75;42.25;;;;;8.80;51.52;101871.91;4420341;32;12411;-72
2021/01/10 11:28:08;;;;;;;;;41.00;39.00;;;;;9.26;49.11;101865.91;4421930;32;12357;-73
2021/01/10 11:31:04;;;;;;;;;33.25;30.50;;;;;9.19;49.53;101870.97;4420323;32;12394;-73
2021/01/10 11:34:01;;;;;;;;;37.25;36.75;;;;;9.09;48.56;101869.16;4421746;32;12290;-72
2021/01/10 11:36:27;;;;;;;;;35.25;35.25;;;;;9.49;48.98;101875.31;4426969;32;12323;-72
2021/01/10 11:39:25;;;;;;;;;32.25;32.25;;;;;8.56;49.38;101876.53;4438139;32;12336;-73
2021/01/10 11:42:21;;;;;;;;;30.75;29.25;;;;;8.93;50.01;101875.13;4437482;32;12330;-72
2021/01/10 11:45:17;;;;;;;;;39.00;38.25;;;;;8.96;50.42;101880.87;4436872;32;12374;-73
2021/01/10 11:48:13;;;;;;;;;36.25;36.25;;;;;9.18;50.22;101883.12;4437547;32;12352;-72
2021/01/10 11:50:40;;;;;;;;;36.25;36.25;;;;;9.32;49.61;101877.72;4437748;32;12372;-73
2021/01/10 11:53:36;;;;;;;;;45.25;41.75;;;;;9.13;50.30;101872.97;4436781;32;12355;-73
2021/01/10 11:56:12;;;;;;;;;40.25;39.25;;;;;9.20;49.98;101875.38;4437034;32;12476;-73
2021/01/10 11:58:42;;;;;;;;;38.25;36.75;;;;;9.16;49.33;101888.13;4435753;32;12432;-74
2021/01/10 12:01:38;;;;;;;;;31.00;31.00;;;;;9.10;48.16;101879.06;4436426;32;12354;-73
2021/01/10 12:04:33;;;;;;;;;35.00;35.00;;;;;9.12;48.58;101890.66;4436318;32;12350;-73
2021/01/10 12:07:29;;;;;;;;;36.75;36.75;;;;;9.02;48.83;101887.97;4436212;32;12378;-73
2021/01/10 12:10:25;;;;;;;;;31.25;31.25;;;;;9.05;48.83;101889.34;4435218;32;12412;-73
2021/01/10 12:13:08;;;;;;;;;26.00;26.00;;;;;8.91;49.82;101891.97;4428321;32;12410;-74
2021/01/10 12:15:36;;;;;;;;;29.75;28.25;;;;;9.00;48.92;101890.22;4435923;32;12339;-72
2021/01/10 12:18:31;;;;;;;;;36.50;36.50;;;;;8.97;48.12;101895.47;4436628;32;12295;-71
2021/01/10 12:21:27;;;;;;;;;39.75;37.00;;;;;8.74;49.48;101886.88;4435695;32;12405;-72
2021/01/10 12:24:22;;;;;;;;;34.75;28.75;;;;;8.70;49.36;101896.00;4435921;32;12376;-71
2021/01/10 12:26:51;;;;;;;;;42.50;39.75;;;;;8.26;49.99;101894.09;4437703;32;12355;-72
2021/01/10 12:29:23;;;;;;;;;41.50;38.00;;;;;8.13;50.52;101898.34;4438304;32;12370;-72
2021/01/10 12:32:18;;;;;;;;;34.00;34.00;;;;;8.44;49.57;101896.22;4434195;32;12439;-72
2021/01/10 12:34:46;;;;;;;;;42.75;38.25;;;;;8.36;49.66;101896.84;4436822;32;12355;-72
2021/01/10 12:37:28;;;;;;;;;44.25;41.00;;;;;8.23;50.28;101901.03;4435282;32;12367;-72
2021/01/10 12:40:12;;;;;;;;;53.00;46.75;;;;;8.00;51.64;101899.78;4437071;32;12394;-71
2021/01/10 12:43:07;;;;;;;;;36.50;35.50;;;;;7.68;53.43;101900.22;4435383;32;12352;-71
2021/01/10 12:46:03;;;;;;;;;47.00;41.25;;;;;7.85;52.60;101899.03;4435812;32;12375;-72
2021/01/10 12:48:59;;;;;;;;;29.00;27.25;;;;;7.63;51.95;101900.22;4436197;32;12393;-71
2021/01/10 12:51:54;;;;;;;;;35.25;33.50;;;;;7.48;51.19;101905.78;4434034;32;12340;-71
2021/01/10 12:54:50;;;;;;;;;36.00;36.00;;;;;7.42;52.64;101902.22;4435044;32;12362;-71
2021/01/10 12:57:45;;;;;;;;;46.00;41.00;;;;;7.16;52.51;101904.25;4435356;32;12995;-70
2021/01/10 13:00:42;;;;;;;;;42.25;39.25;;;;;7.13;53.26;101904.81;4436479;32;12541;-71
2021/01/10 13:03:38;;;;;;;;;48.25;42.75;;;;;6.94;54.13;101907.28;4435583;32;12339;-70
2021/01/10 13:06:35;;;;;;;;;43.75;41.25;;;;;7.00;55.16;101921.06;4436661;32;12354;-71
2021/01/10 13:09:20;;;;;;;;;34.75;34.75;;;;;6.94;55.12;101928.47;4423654;32;12354;-70
2021/01/10 13:12:16;;;;;;;;;42.00;37.75;;;;;7.01;54.62;101930.94;4436928;32;13080;-72
2021/01/10 13:14:43;;;;;;;;;36.25;35.75;;;;;6.93;55.45;101932.34;4435210;32;12316;-71